sensor_id;sensor_type;location;lat;lon;timestamp;P1;durP1;ratioP1;P2;durP2;ratioP2
50225;SDS011;36113;50.742;6.432;2023-03-01T00:01:45;13.30;;;10.55;;
50225;SDS011;36113;50.742;6.432;2023-03-01T00:04:11;13.70;;;9.60;;
50225;SDS011;36113;50.742;6.432;2023-03-01T00:06:36;10.45;;;9.27;;
50225;SDS011;36113;50.742;6.432;2023-03-01T00:09:02;14.93;;;9.80;;
50225;SDS011;36113;50.742;6.432;2023-03-01T00:11:28;13.35;;;10.65;;
50225;SDS011;36113;50.742;6.432;2023-03-01T00:13:56;14.70;;;10.40;;
50225;SDS011;36113;50.742;6.432;2023-03-01T00:16:24;13.18;;;9.15;;
50225;SDS011;36113;50.742;6.432;2023-03-01T00:18:51;12.93;;;9.68;;
50225;SDS011;36113;50.742;6.432;2023-03-01T00:21:19;13.73;;;11.15;;
50225;SDS011;36113;50.742;6.432;2023-03-01T00:23:46;15.27;;;10.88;;
50225;SDS011;36113;50.742;6.432;2023-03-01T00:26:13;13.73;;;9.85;;
50225;SDS011;36113;50.742;6.432;2023-03-01T00:28:40;14.13;;;11.27;;
50225;SDS011;36113;50.742;6.432;2023-03-01T00:31:06;13.98;;;10.27;;
50225;SDS011;36113;50.742;6.432;2023-03-01T00:33:42;15.10;;;10.18;;
50225;SDS011;36113;50.742;6.432;2023-03-01T00:36:08;12.65;;;10.27;;
50225;SDS011;36113;50.742;6.432;2023-03-01T00:38:52;16.67;;;11.70;;
50225;SDS011;36113;50.742;6.432;2023-03-01T00:41:21;14.13;;;10.65;;
50225;SDS011;36113;50.742;6.432;2023-03-01T00:43:51;12.70;;;10.52;;
50225;SDS011;36113;50.742;6.432;2023-03-01T00:46:18;11.83;;;9.70;;
50225;SDS011;36113;50.742;6.432;2023-03-01T00:48:45;16.45;;;10.65;;
50225;SDS011;36113;50.742;6.432;2023-03-01T00:51:12;15.32;;;10.13;;
50225;SDS011;36113;50.742;6.432;2023-03-01T00:53:39;11.90;;;9.48;;
50225;SDS011;36113;50.742;6.432;2023-03-01T00:56:06;13.00;;;10.07;;
50225;SDS011;36113;50.742;6.432;2023-03-01T01:00:58;14.20;;;9.95;;
50225;SDS011;36113;50.742;6.432;2023-03-01T01:03:23;15.43;;;11.40;;
50225;SDS011;36113;50.742;6.432;2023-03-01T01:05:50;13.85;;;9.77;;
50225;SDS011;36113;50.742;6.432;2023-03-01T01:08:19;18.42;;;11.18;;
50225;SDS011;36113;50.742;6.432;2023-03-01T01:10:45;12.98;;;10.25;;
50225;SDS011;36113;50.742;6.432;2023-03-01T01:13:11;17.70;;;10.50;;
50225;SDS011;36113;50.742;6.432;2023-03-01T01:15:36;13.80;;;10.40;;
50225;SDS011;36113;50.742;6.432;2023-03-01T01:18:02;15.80;;;10.63;;
50225;SDS011;36113;50.742;6.432;2023-03-01T01:20:27;14.30;;;10.30;;
50225;SDS011;36113;50.742;6.432;2023-03-01T01:22:53;15.07;;;10.82;;
50225;SDS011;36113;50.742;6.432;2023-03-01T01:25:18;13.35;;;10.15;;
50225;SDS011;36113;50.742;6.432;2023-03-01T01:27:44;12.68;;;10.23;;
50225;SDS011;36113;50.742;6.432;2023-03-01T01:30:09;15.27;;;11.05;;
50225;SDS011;36113;50.742;6.432;2023-03-01T01:32:35;18.58;;;11.43;;
50225;SDS011;36113;50.742;6.432;2023-03-01T01:35:00;19.38;;;11.25;;
50225;SDS011;36113;50.742;6.432;2023-03-01T01:37:26;14.45;;;10.07;;
50225;SDS011;36113;50.742;6.432;2023-03-01T01:39:56;14.07;;;10.27;;
50225;SDS011;36113;50.742;6.432;2023-03-01T01:42:26;18.23;;;10.57;;
50225;SDS011;36113;50.742;6.432;2023-03-01T01:47:56;14.38;;;10.73;;
50225;SDS011;36113;50.742;6.432;2023-03-01T01:50:25;13.02;;;10.52;;
50225;SDS011;36113;50.742;6.432;2023-03-01T01:52:52;13.20;;;10.03;;
50225;SDS011;36113;50.742;6.432;2023-03-01T01:55:21;14.20;;;10.40;;
50225;SDS011;36113;50.742;6.432;2023-03-01T01:57:53;16.40;;;11.15;;
50225;SDS011;36113;50.742;6.432;2023-03-01T02:00:23;15.73;;;11.38;;
50225;SDS011;36113;50.742;6.432;2023-03-01T02:03:01;14.15;;;10.63;;
50225;SDS011;36113;50.742;6.432;2023-03-01T02:08:13;15.57;;;10.68;;
50225;SDS011;36113;50.742;6.432;2023-03-01T02:10:41;14.88;;;10.98;;
50225;SDS011;36113;50.742;6.432;2023-03-01T02:13:07;13.20;;;10.55;;
50225;SDS011;36113;50.742;6.432;2023-03-01T02:15:34;13.43;;;10.23;;
50225;SDS011;36113;50.742;6.432;2023-03-01T02:18:01;14.40;;;10.48;;
50225;SDS011;36113;50.742;6.432;2023-03-01T02:23:12;15.30;;;10.95;;
50225;SDS011;36113;50.742;6.432;2023-03-01T02:25:49;15.00;;;10.07;;
50225;SDS011;36113;50.742;6.432;2023-03-01T02:28:34;13.48;;;9.60;;
50225;SDS011;36113;50.742;6.432;2023-03-01T02:31:01;12.63;;;10.90;;
50225;SDS011;36113;50.742;6.432;2023-03-01T02:33:46;14.70;;;10.57;;
50225;SDS011;36113;50.742;6.432;2023-03-01T02:36:17;11.23;;;9.13;;
50225;SDS011;36113;50.742;6.432;2023-03-01T02:38:45;16.90;;;10.50;;
50225;SDS011;36113;50.742;6.432;2023-03-01T02:41:13;12.57;;;10.35;;
50225;SDS011;36113;50.742;6.432;2023-03-01T02:43:41;12.00;;;9.43;;
50225;SDS011;36113;50.742;6.432;2023-03-01T02:46:08;13.25;;;9.82;;
50225;SDS011;36113;50.742;6.432;2023-03-01T02:48:43;14.73;;;10.07;;
50225;SDS011;36113;50.742;6.432;2023-03-01T02:51:17;15.20;;;10.18;;
50225;SDS011;36113;50.742;6.432;2023-03-01T02:54:07;12.93;;;9.77;;
50225;SDS011;36113;50.742;6.432;2023-03-01T02:56:40;16.63;;;11.02;;
50225;SDS011;36113;50.742;6.432;2023-03-01T02:59:08;15.20;;;10.98;;
50225;SDS011;36113;50.742;6.432;2023-03-01T03:01:34;15.60;;;10.95;;
50225;SDS011;36113;50.742;6.432;2023-03-01T03:04:03;14.52;;;10.02;;
50225;SDS011;36113;50.742;6.432;2023-03-01T03:06:34;15.10;;;11.32;;
50225;SDS011;36113;50.742;6.432;2023-03-01T03:09:00;19.17;;;10.10;;
50225;SDS011;36113;50.742;6.432;2023-03-01T03:11:25;17.08;;;10.52;;
50225;SDS011;36113;50.742;6.432;2023-03-01T03:13:51;14.63;;;11.50;;
50225;SDS011;36113;50.742;6.432;2023-03-01T03:16:17;13.65;;;10.90;;
50225;SDS011;36113;50.742;6.432;2023-03-01T03:18:43;14.32;;;10.20;;
50225;SDS011;36113;50.742;6.432;2023-03-01T03:21:09;12.70;;;9.88;;
50225;SDS011;36113;50.742;6.432;2023-03-01T03:23:36;17.67;;;12.57;;
50225;SDS011;36113;50.742;6.432;2023-03-01T03:26:02;13.82;;;10.80;;
50225;SDS011;36113;50.742;6.432;2023-03-01T03:28:29;14.05;;;10.73;;
50225;SDS011;36113;50.742;6.432;2023-03-01T03:30:55;15.30;;;10.77;;
50225;SDS011;36113;50.742;6.432;2023-03-01T03:33:21;16.77;;;11.15;;
50225;SDS011;36113;50.742;6.432;2023-03-01T03:35:48;16.42;;;11.48;;
50225;SDS011;36113;50.742;6.432;2023-03-01T03:40:47;16.40;;;10.40;;
50225;SDS011;36113;50.742;6.432;2023-03-01T03:43:18;15.63;;;11.35;;
50225;SDS011;36113;50.742;6.432;2023-03-01T03:45:46;14.57;;;11.88;;
50225;SDS011;36113;50.742;6.432;2023-03-01T03:48:12;17.73;;;10.75;;
50225;SDS011;36113;50.742;6.432;2023-03-01T03:50:38;16.63;;;10.73;;
50225;SDS011;36113;50.742;6.432;2023-03-01T03:53:06;15.57;;;11.43;;
50225;SDS011;36113;50.742;6.432;2023-03-01T03:55:33;17.42;;;10.13;;
50225;SDS011;36113;50.742;6.432;2023-03-01T03:57:59;18.35;;;10.77;;
50225;SDS011;36113;50.742;6.432;2023-03-01T04:00:32;15.65;;;10.68;;
50225;SDS011;36113;50.742;6.432;2023-03-01T04:02:57;17.90;;;10.98;;
50225;SDS011;36113;50.742;6.432;2023-03-01T04:05:23;14.52;;;10.32;;
50225;SDS011;36113;50.742;6.432;2023-03-01T04:07:48;16.88;;;11.13;;
50225;SDS011;36113;50.742;6.432;2023-03-01T04:10:17;18.17;;;11.18;;
50225;SDS011;36113;50.742;6.432;2023-03-01T04:12:43;15.10;;;10.68;;
50225;SDS011;36113;50.742;6.432;2023-03-01T04:15:08;16.67;;;11.05;;
50225;SDS011;36113;50.742;6.432;2023-03-01T04:17:42;13.45;;;10.65;;
50225;SDS011;36113;50.742;6.432;2023-03-01T04:20:18;14.93;;;10.90;;
50225;SDS011;36113;50.742;6.432;2023-03-01T04:22:52;12.32;;;9.27;;
50225;SDS011;36113;50.742;6.432;2023-03-01T04:25:25;12.27;;;9.60;;
50225;SDS011;36113;50.742;6.432;2023-03-01T04:27:51;13.98;;;10.55;;
50225;SDS011;36113;50.742;6.432;2023-03-01T04:30:16;13.65;;;10.35;;
50225;SDS011;36113;50.742;6.432;2023-03-01T04:32:42;14.48;;;10.20;;
50225;SDS011;36113;50.742;6.432;2023-03-01T04:35:07;15.50;;;11.02;;
50225;SDS011;36113;50.742;6.432;2023-03-01T04:37:33;17.38;;;10.13;;
50225;SDS011;36113;50.742;6.432;2023-03-01T04:39:59;13.32;;;9.88;;
50225;SDS011;36113;50.742;6.432;2023-03-01T04:42:25;16.27;;;10.83;;
50225;SDS011;36113;50.742;6.432;2023-03-01T04:44:51;14.07;;;9.63;;
50225;SDS011;36113;50.742;6.432;2023-03-01T04:47:17;17.27;;;11.00;;
50225;SDS011;36113;50.742;6.432;2023-03-01T04:49:42;19.33;;;11.23;;
50225;SDS011;36113;50.742;6.432;2023-03-01T04:52:07;13.23;;;10.00;;
50225;SDS011;36113;50.742;6.432;2023-03-01T04:54:34;17.25;;;11.43;;
50225;SDS011;36113;50.742;6.432;2023-03-01T04:57:01;12.90;;;10.40;;
50225;SDS011;36113;50.742;6.432;2023-03-01T04:59:28;15.77;;;9.95;;
50225;SDS011;36113;50.742;6.432;2023-03-01T05:01:54;20.27;;;11.05;;
50225;SDS011;36113;50.742;6.432;2023-03-01T05:06:49;12.23;;;10.38;;
50225;SDS011;36113;50.742;6.432;2023-03-01T05:09:15;19.98;;;11.10;;
50225;SDS011;36113;50.742;6.432;2023-03-01T05:11:40;17.88;;;10.60;;
50225;SDS011;36113;50.742;6.432;2023-03-01T05:14:06;17.55;;;10.43;;
50225;SDS011;36113;50.742;6.432;2023-03-01T05:16:33;15.18;;;10.98;;
50225;SDS011;36113;50.742;6.432;2023-03-01T05:18:59;14.30;;;11.13;;
50225;SDS011;36113;50.742;6.432;2023-03-01T05:21:25;15.70;;;11.43;;
50225;SDS011;36113;50.742;6.432;2023-03-01T05:23:51;19.13;;;11.20;;
50225;SDS011;36113;50.742;6.432;2023-03-01T05:26:17;16.40;;;10.48;;
50225;SDS011;36113;50.742;6.432;2023-03-01T05:28:44;15.38;;;11.20;;
50225;SDS011;36113;50.742;6.432;2023-03-01T05:31:10;16.52;;;10.52;;
50225;SDS011;36113;50.742;6.432;2023-03-01T05:33:36;14.60;;;10.90;;
50225;SDS011;36113;50.742;6.432;2023-03-01T05:38:28;12.57;;;10.35;;
50225;SDS011;36113;50.742;6.432;2023-03-01T05:40:53;16.98;;;11.30;;
50225;SDS011;36113;50.742;6.432;2023-03-01T05:43:19;19.50;;;10.48;;
50225;SDS011;36113;50.742;6.432;2023-03-01T05:45:44;17.02;;;10.52;;
50225;SDS011;36113;50.742;6.432;2023-03-01T05:48:10;16.33;;;11.60;;
50225;SDS011;36113;50.742;6.432;2023-03-01T05:53:05;19.08;;;12.10;;
50225;SDS011;36113;50.742;6.432;2023-03-01T05:55:34;22.23;;;12.38;;
50225;SDS011;36113;50.742;6.432;2023-03-01T05:58:01;17.35;;;12.10;;
50225;SDS011;36113;50.742;6.432;2023-03-01T06:00:28;22.10;;;11.88;;
50225;SDS011;36113;50.742;6.432;2023-03-01T06:02:55;18.98;;;11.23;;
50225;SDS011;36113;50.742;6.432;2023-03-01T06:05:21;18.03;;;11.57;;
50225;SDS011;36113;50.742;6.432;2023-03-01T06:07:47;17.25;;;12.32;;
50225;SDS011;36113;50.742;6.432;2023-03-01T06:10:13;17.00;;;12.15;;
50225;SDS011;36113;50.742;6.432;2023-03-01T06:12:40;18.25;;;11.88;;
50225;SDS011;36113;50.742;6.432;2023-03-01T06:15:06;21.90;;;11.60;;
50225;SDS011;36113;50.742;6.432;2023-03-01T06:17:34;17.65;;;11.98;;
50225;SDS011;36113;50.742;6.432;2023-03-01T06:20:03;18.45;;;11.65;;
50225;SDS011;36113;50.742;6.432;2023-03-01T06:22:30;19.77;;;13.00;;
50225;SDS011;36113;50.742;6.432;2023-03-01T06:24:55;15.88;;;11.40;;
50225;SDS011;36113;50.742;6.432;2023-03-01T06:27:20;17.63;;;12.48;;
50225;SDS011;36113;50.742;6.432;2023-03-01T06:29:46;18.92;;;12.25;;
50225;SDS011;36113;50.742;6.432;2023-03-01T06:32:11;19.13;;;12.73;;
50225;SDS011;36113;50.742;6.432;2023-03-01T06:34:36;16.02;;;12.40;;
50225;SDS011;36113;50.742;6.432;2023-03-01T06:37:04;19.52;;;12.93;;
50225;SDS011;36113;50.742;6.432;2023-03-01T06:39:31;20.58;;;13.70;;
50225;SDS011;36113;50.742;6.432;2023-03-01T06:41:57;21.52;;;13.90;;
50225;SDS011;36113;50.742;6.432;2023-03-01T06:44:22;16.67;;;12.05;;
50225;SDS011;36113;50.742;6.432;2023-03-01T06:46:48;19.38;;;12.48;;
50225;SDS011;36113;50.742;6.432;2023-03-01T06:49:13;17.80;;;12.90;;
50225;SDS011;36113;50.742;6.432;2023-03-01T06:51:40;20.65;;;14.52;;
50225;SDS011;36113;50.742;6.432;2023-03-01T06:54:06;17.30;;;11.98;;
50225;SDS011;36113;50.742;6.432;2023-03-01T06:56:31;19.95;;;12.35;;
50225;SDS011;36113;50.742;6.432;2023-03-01T06:58:57;17.50;;;12.82;;
50225;SDS011;36113;50.742;6.432;2023-03-01T07:01:22;20.17;;;12.98;;
50225;SDS011;36113;50.742;6.432;2023-03-01T07:03:47;18.15;;;11.68;;
50225;SDS011;36113;50.742;6.432;2023-03-01T07:06:13;18.90;;;12.95;;
50225;SDS011;36113;50.742;6.432;2023-03-01T07:08:38;19.77;;;13.48;;
50225;SDS011;36113;50.742;6.432;2023-03-01T07:11:03;19.35;;;13.43;;
50225;SDS011;36113;50.742;6.432;2023-03-01T07:13:30;23.20;;;15.10;;
50225;SDS011;36113;50.742;6.432;2023-03-01T07:15:56;34.28;;;15.13;;
50225;SDS011;36113;50.742;6.432;2023-03-01T07:18:21;32.53;;;16.63;;
50225;SDS011;36113;50.742;6.432;2023-03-01T07:20:46;33.47;;;18.63;;
50225;SDS011;36113;50.742;6.432;2023-03-01T07:23:11;32.17;;;16.67;;
50225;SDS011;36113;50.742;6.432;2023-03-01T07:25:37;40.42;;;25.42;;
50225;SDS011;36113;50.742;6.432;2023-03-01T07:28:02;26.02;;;17.83;;
50225;SDS011;36113;50.742;6.432;2023-03-01T07:30:28;39.63;;;26.60;;
50225;SDS011;36113;50.742;6.432;2023-03-01T07:32:56;69.47;;;48.30;;
50225;SDS011;36113;50.742;6.432;2023-03-01T07:35:23;41.22;;;30.13;;
50225;SDS011;36113;50.742;6.432;2023-03-01T07:37:50;23.33;;;18.02;;
50225;SDS011;36113;50.742;6.432;2023-03-01T07:40:16;24.80;;;16.65;;
50225;SDS011;36113;50.742;6.432;2023-03-01T07:42:41;18.10;;;12.77;;
50225;SDS011;36113;50.742;6.432;2023-03-01T07:45:06;17.77;;;13.77;;
50225;SDS011;36113;50.742;6.432;2023-03-01T07:47:33;18.53;;;12.70;;
50225;SDS011;36113;50.742;6.432;2023-03-01T07:49:58;21.73;;;13.65;;
50225;SDS011;36113;50.742;6.432;2023-03-01T07:52:23;16.63;;;13.30;;
50225;SDS011;36113;50.742;6.432;2023-03-01T07:54:49;17.48;;;13.23;;
50225;SDS011;36113;50.742;6.432;2023-03-01T07:57:14;19.83;;;13.50;;
50225;SDS011;36113;50.742;6.432;2023-03-01T07:59:40;19.05;;;13.25;;
50225;SDS011;36113;50.742;6.432;2023-03-01T08:02:05;17.25;;;13.18;;
50225;SDS011;36113;50.742;6.432;2023-03-01T08:04:31;21.23;;;12.65;;
50225;SDS011;36113;50.742;6.432;2023-03-01T08:06:58;21.90;;;13.50;;
50225;SDS011;36113;50.742;6.432;2023-03-01T08:09:23;20.75;;;13.65;;
50225;SDS011;36113;50.742;6.432;2023-03-01T08:11:49;16.65;;;13.07;;
50225;SDS011;36113;50.742;6.432;2023-03-01T08:14:14;19.73;;;12.73;;
50225;SDS011;36113;50.742;6.432;2023-03-01T08:16:40;16.90;;;12.60;;
50225;SDS011;36113;50.742;6.432;2023-03-01T08:19:06;18.25;;;12.52;;
50225;SDS011;36113;50.742;6.432;2023-03-01T08:21:33;15.82;;;12.18;;
50225;SDS011;36113;50.742;6.432;2023-03-01T08:23:59;18.73;;;12.40;;
50225;SDS011;36113;50.742;6.432;2023-03-01T08:26:29;21.40;;;13.63;;
50225;SDS011;36113;50.742;6.432;2023-03-01T08:28:54;20.70;;;13.73;;
50225;SDS011;36113;50.742;6.432;2023-03-01T08:31:27;18.08;;;13.55;;
50225;SDS011;36113;50.742;6.432;2023-03-01T08:33:59;19.25;;;12.93;;
50225;SDS011;36113;50.742;6.432;2023-03-01T08:36:29;19.73;;;13.68;;
50225;SDS011;36113;50.742;6.432;2023-03-01T08:38:56;22.80;;;13.68;;
50225;SDS011;36113;50.742;6.432;2023-03-01T08:41:22;24.73;;;14.80;;
50225;SDS011;36113;50.742;6.432;2023-03-01T08:43:48;26.20;;;14.43;;
50225;SDS011;36113;50.742;6.432;2023-03-01T08:46:13;21.70;;;15.02;;
50225;SDS011;36113;50.742;6.432;2023-03-01T08:48:39;21.27;;;14.05;;
50225;SDS011;36113;50.742;6.432;2023-03-01T08:51:08;22.58;;;15.77;;
50225;SDS011;36113;50.742;6.432;2023-03-01T08:53:34;20.40;;;14.57;;
50225;SDS011;36113;50.742;6.432;2023-03-01T08:56:00;23.17;;;14.65;;
50225;SDS011;36113;50.742;6.432;2023-03-01T08:58:27;18.73;;;13.70;;
50225;SDS011;36113;50.742;6.432;2023-03-01T09:00:53;23.17;;;15.90;;
50225;SDS011;36113;50.742;6.432;2023-03-01T09:03:19;18.73;;;13.70;;
50225;SDS011;36113;50.742;6.432;2023-03-01T09:05:44;19.13;;;14.05;;
50225;SDS011;36113;50.742;6.432;2023-03-01T09:08:10;21.95;;;14.85;;
50225;SDS011;36113;50.742;6.432;2023-03-01T09:10:39;20.67;;;14.77;;
50225;SDS011;36113;50.742;6.432;2023-03-01T09:13:04;17.88;;;13.07;;
50225;SDS011;36113;50.742;6.432;2023-03-01T09:15:30;24.40;;;14.38;;
50225;SDS011;36113;50.742;6.432;2023-03-01T09:17:55;20.00;;;13.90;;
50225;SDS011;36113;50.742;6.432;2023-03-01T09:20:20;20.45;;;13.45;;
50225;SDS011;36113;50.742;6.432;2023-03-01T09:22:46;21.35;;;14.48;;
50225;SDS011;36113;50.742;6.432;2023-03-01T09:25:11;19.20;;;14.80;;
50225;SDS011;36113;50.742;6.432;2023-03-01T09:27:37;23.38;;;14.90;;
50225;SDS011;36113;50.742;6.432;2023-03-01T09:30:02;20.75;;;14.40;;
50225;SDS011;36113;50.742;6.432;2023-03-01T09:32:29;24.30;;;15.30;;
50225;SDS011;36113;50.742;6.432;2023-03-01T09:34:55;19.88;;;14.82;;
50225;SDS011;36113;50.742;6.432;2023-03-01T09:37:29;22.15;;;14.82;;
50225;SDS011;36113;50.742;6.432;2023-03-01T09:39:55;22.38;;;15.95;;
50225;SDS011;36113;50.742;6.432;2023-03-01T09:42:21;21.50;;;14.32;;
50225;SDS011;36113;50.742;6.432;2023-03-01T09:44:57;24.17;;;15.63;;
50225;SDS011;36113;50.742;6.432;2023-03-01T09:47:28;27.85;;;16.58;;
50225;SDS011;36113;50.742;6.432;2023-03-01T09:50:16;22.42;;;14.38;;
50225;SDS011;36113;50.742;6.432;2023-03-01T09:53:45;25.20;;;15.40;;
50225;SDS011;36113;50.742;6.432;2023-03-01T09:55:51;21.25;;;15.07;;
50225;SDS011;36113;50.742;6.432;2023-03-01T10:00:56;24.13;;;15.35;;
50225;SDS011;36113;50.742;6.432;2023-03-01T10:03:38;20.38;;;14.50;;
50225;SDS011;36113;50.742;6.432;2023-03-01T10:06:11;24.88;;;14.55;;
50225;SDS011;36113;50.742;6.432;2023-03-01T10:16:26;21.08;;;15.30;;
50225;SDS011;36113;50.742;6.432;2023-03-01T10:19:00;21.27;;;14.95;;
50225;SDS011;36113;50.742;6.432;2023-03-01T10:21:28;20.92;;;15.55;;
50225;SDS011;36113;50.742;6.432;2023-03-01T10:23:56;27.90;;;17.20;;
50225;SDS011;36113;50.742;6.432;2023-03-01T10:26:52;25.17;;;16.98;;
50225;SDS011;36113;50.742;6.432;2023-03-01T10:29:22;21.60;;;16.52;;
50225;SDS011;36113;50.742;6.432;2023-03-01T10:31:52;23.20;;;15.18;;
50225;SDS011;36113;50.742;6.432;2023-03-01T10:34:21;23.45;;;15.13;;
50225;SDS011;36113;50.742;6.432;2023-03-01T10:36:55;22.42;;;15.32;;
50225;SDS011;36113;50.742;6.432;2023-03-01T10:39:23;20.60;;;14.90;;
50225;SDS011;36113;50.742;6.432;2023-03-01T10:41:55;19.02;;;14.45;;
50225;SDS011;36113;50.742;6.432;2023-03-01T10:44:39;23.10;;;16.15;;
50225;SDS011;36113;50.742;6.432;2023-03-01T10:47:20;20.77;;;13.80;;
50225;SDS011;36113;50.742;6.432;2023-03-01T10:52:36;18.92;;;13.35;;
50225;SDS011;36113;50.742;6.432;2023-03-01T10:58:06;22.23;;;14.77;;
50225;SDS011;36113;50.742;6.432;2023-03-01T11:01:02;18.77;;;14.07;;
50225;SDS011;36113;50.742;6.432;2023-03-01T11:05:58;20.08;;;14.55;;
50225;SDS011;36113;50.742;6.432;2023-03-01T11:11:13;18.40;;;14.52;;
50225;SDS011;36113;50.742;6.432;2023-03-01T11:16:26;21.65;;;15.95;;
50225;SDS011;36113;50.742;6.432;2023-03-01T11:18:57;18.92;;;14.35;;
50225;SDS011;36113;50.742;6.432;2023-03-01T11:21:25;25.52;;;15.40;;
50225;SDS011;36113;50.742;6.432;2023-03-01T11:23:53;23.13;;;15.60;;
50225;SDS011;36113;50.742;6.432;2023-03-01T11:26:19;20.27;;;15.07;;
50225;SDS011;36113;50.742;6.432;2023-03-01T11:28:47;25.00;;;15.85;;
50225;SDS011;36113;50.742;6.432;2023-03-01T11:31:16;23.40;;;15.80;;
50225;SDS011;36113;50.742;6.432;2023-03-01T11:39:03;19.25;;;15.10;;
50225;SDS011;36113;50.742;6.432;2023-03-01T11:41:48;22.33;;;16.25;;
50225;SDS011;36113;50.742;6.432;2023-03-01T11:44:20;23.25;;;16.75;;
50225;SDS011;36113;50.742;6.432;2023-03-01T11:49:29;24.00;;;16.05;;
50225;SDS011;36113;50.742;6.432;2023-03-01T11:52:32;24.50;;;16.57;;
50225;SDS011;36113;50.742;6.432;2023-03-01T12:09:20;26.13;;;16.92;;
50225;SDS011;36113;50.742;6.432;2023-03-01T12:12:08;26.67;;;15.73;;
50225;SDS011;36113;50.742;6.432;2023-03-01T12:20:21;22.67;;;15.70;;
50225;SDS011;36113;50.742;6.432;2023-03-01T12:25:52;24.58;;;17.00;;
50225;SDS011;36113;50.742;6.432;2023-03-01T12:29:30;22.25;;;16.52;;
50225;SDS011;36113;50.742;6.432;2023-03-01T12:43:07;22.17;;;16.10;;
50225;SDS011;36113;50.742;6.432;2023-03-01T12:51:43;23.23;;;15.27;;
50225;SDS011;36113;50.742;6.432;2023-03-01T12:54:15;28.38;;;15.90;;
50225;SDS011;36113;50.742;6.432;2023-03-01T12:56:46;24.55;;;16.00;;
50225;SDS011;36113;50.742;6.432;2023-03-01T13:02:05;26.35;;;16.65;;
50225;SDS011;36113;50.742;6.432;2023-03-01T13:04:56;23.27;;;16.58;;
50225;SDS011;36113;50.742;6.432;2023-03-01T13:07:35;20.05;;;15.65;;
50225;SDS011;36113;50.742;6.432;2023-03-01T13:12:46;21.52;;;14.48;;
50225;SDS011;36113;50.742;6.432;2023-03-01T13:17:52;30.00;;;15.85;;
50225;SDS011;36113;50.742;6.432;2023-03-01T13:20:21;23.20;;;15.52;;
50225;SDS011;36113;50.742;6.432;2023-03-01T13:31:01;20.50;;;13.55;;
50225;SDS011;36113;50.742;6.432;2023-03-01T13:35:53;20.67;;;14.50;;
50225;SDS011;36113;50.742;6.432;2023-03-01T13:46:56;18.45;;;12.82;;
50225;SDS011;36113;50.742;6.432;2023-03-01T13:49:27;18.38;;;11.75;;
50225;SDS011;36113;50.742;6.432;2023-03-01T13:51:56;15.18;;;11.60;;
50225;SDS011;36113;50.742;6.432;2023-03-01T13:54:26;18.55;;;13.15;;
50225;SDS011;36113;50.742;6.432;2023-03-01T13:56:55;20.98;;;13.00;;
50225;SDS011;36113;50.742;6.432;2023-03-01T13:59:23;21.02;;;13.15;;
50225;SDS011;36113;50.742;6.432;2023-03-01T14:01:52;17.95;;;12.95;;
50225;SDS011;36113;50.742;6.432;2023-03-01T14:04:22;16.13;;;11.77;;
50225;SDS011;36113;50.742;6.432;2023-03-01T14:06:48;20.55;;;12.07;;
50225;SDS011;36113;50.742;6.432;2023-03-01T14:11:52;15.38;;;11.88;;
50225;SDS011;36113;50.742;6.432;2023-03-01T14:17:33;19.73;;;12.10;;
50225;SDS011;36113;50.742;6.432;2023-03-01T14:20:11;13.93;;;12.00;;
50225;SDS011;36113;50.742;6.432;2023-03-01T14:22:44;11.35;;;9.93;;
50225;SDS011;36113;50.742;6.432;2023-03-01T14:25:31;16.33;;;12.43;;
50225;SDS011;36113;50.742;6.432;2023-03-01T14:30:40;48.20;;;25.70;;
50225;SDS011;36113;50.742;6.432;2023-03-01T14:33:18;21.30;;;11.80;;
50225;SDS011;36113;50.742;6.432;2023-03-01T14:35:54;46.55;;;26.13;;
50225;SDS011;36113;50.742;6.432;2023-03-01T14:38:23;17.60;;;10.75;;
50225;SDS011;36113;50.742;6.432;2023-03-01T14:40:55;14.32;;;11.35;;
50225;SDS011;36113;50.742;6.432;2023-03-01T14:43:23;14.70;;;11.27;;
50225;SDS011;36113;50.742;6.432;2023-03-01T14:45:51;17.70;;;12.93;;
50225;SDS011;36113;50.742;6.432;2023-03-01T14:48:16;15.75;;;11.15;;
50225;SDS011;36113;50.742;6.432;2023-03-01T14:50:43;16.25;;;11.73;;
50225;SDS011;36113;50.742;6.432;2023-03-01T14:53:20;17.92;;;11.85;;
50225;SDS011;36113;50.742;6.432;2023-03-01T14:55:49;15.27;;;11.90;;
50225;SDS011;36113;50.742;6.432;2023-03-01T14:58:21;15.30;;;11.77;;
50225;SDS011;36113;50.742;6.432;2023-03-01T15:00:50;23.63;;;17.63;;
50225;SDS011;36113;50.742;6.432;2023-03-01T15:06:02;24.77;;;16.25;;
50225;SDS011;36113;50.742;6.432;2023-03-01T15:08:29;16.80;;;12.18;;
50225;SDS011;36113;50.742;6.432;2023-03-01T15:13:31;15.10;;;11.73;;
50225;SDS011;36113;50.742;6.432;2023-03-01T15:16:04;17.67;;;12.13;;
50225;SDS011;36113;50.742;6.432;2023-03-01T15:18:31;17.20;;;13.57;;
50225;SDS011;36113;50.742;6.432;2023-03-01T15:21:07;18.08;;;13.23;;
50225;SDS011;36113;50.742;6.432;2023-03-01T15:23:50;16.35;;;12.00;;
50225;SDS011;36113;50.742;6.432;2023-03-01T15:26:38;15.98;;;12.18;;
50225;SDS011;36113;50.742;6.432;2023-03-01T15:29:10;16.30;;;12.73;;
50225;SDS011;36113;50.742;6.432;2023-03-01T15:31:54;16.15;;;11.45;;
50225;SDS011;36113;50.742;6.432;2023-03-01T15:34:25;12.73;;;11.15;;
50225;SDS011;36113;50.742;6.432;2023-03-01T15:36:54;14.60;;;11.23;;
50225;SDS011;36113;50.742;6.432;2023-03-01T15:39:27;14.25;;;11.10;;
50225;SDS011;36113;50.742;6.432;2023-03-01T15:41:57;14.00;;;11.07;;
50225;SDS011;36113;50.742;6.432;2023-03-01T15:44:27;18.10;;;11.27;;
50225;SDS011;36113;50.742;6.432;2023-03-01T15:46:54;15.50;;;10.93;;
50225;SDS011;36113;50.742;6.432;2023-03-01T15:49:39;19.10;;;11.05;;
50225;SDS011;36113;50.742;6.432;2023-03-01T15:52:23;15.18;;;10.77;;
50225;SDS011;36113;50.742;6.432;2023-03-01T15:54:54;15.25;;;10.23;;
50225;SDS011;36113;50.742;6.432;2023-03-01T15:59:46;12.63;;;10.15;;
50225;SDS011;36113;50.742;6.432;2023-03-01T16:02:11;16.55;;;10.75;;
50225;SDS011;36113;50.742;6.432;2023-03-01T16:04:40;15.13;;;10.05;;
50225;SDS011;36113;50.742;6.432;2023-03-01T16:07:06;18.42;;;11.00;;
50225;SDS011;36113;50.742;6.432;2023-03-01T16:09:31;13.93;;;9.85;;
50225;SDS011;36113;50.742;6.432;2023-03-01T16:11:57;15.30;;;10.40;;
50225;SDS011;36113;50.742;6.432;2023-03-01T16:14:22;15.30;;;10.45;;
50225;SDS011;36113;50.742;6.432;2023-03-01T16:16:48;13.30;;;9.60;;
50225;SDS011;36113;50.742;6.432;2023-03-01T16:19:14;12.50;;;9.57;;
50225;SDS011;36113;50.742;6.432;2023-03-01T16:21:40;14.57;;;10.23;;
50225;SDS011;36113;50.742;6.432;2023-03-01T16:24:07;13.77;;;10.23;;
50225;SDS011;36113;50.742;6.432;2023-03-01T16:26:33;16.48;;;10.05;;
50225;SDS011;36113;50.742;6.432;2023-03-01T16:28:59;13.98;;;10.68;;
50225;SDS011;36113;50.742;6.432;2023-03-01T16:31:24;11.98;;;10.07;;
50225;SDS011;36113;50.742;6.432;2023-03-01T16:33:54;16.10;;;10.40;;
50225;SDS011;36113;50.742;6.432;2023-03-01T16:36:21;11.95;;;9.73;;
50225;SDS011;36113;50.742;6.432;2023-03-01T16:38:48;14.48;;;10.15;;
50225;SDS011;36113;50.742;6.432;2023-03-01T16:41:15;12.68;;;10.07;;
50225;SDS011;36113;50.742;6.432;2023-03-01T16:43:42;13.57;;;9.63;;
50225;SDS011;36113;50.742;6.432;2023-03-01T16:46:11;16.70;;;11.88;;
50225;SDS011;36113;50.742;6.432;2023-03-01T16:48:47;17.60;;;9.90;;
50225;SDS011;36113;50.742;6.432;2023-03-01T16:51:14;15.07;;;10.20;;